sensor_id;sensor_type;location;lat;lon;timestamp;P1;durP1;ratioP1;P2;durP2;ratioP2
6850;SDS011;3464;42.728;23.296;2024-02-21T21:19:44;12.20;;;4.70;;
6850;SDS011;3464;42.728;23.296;2024-02-21T21:22:38;14.50;;;5.67;;
6850;SDS011;3464;42.728;23.296;2024-02-21T21:25:30;14.60;;;6.00;;
6850;SDS011;3464;42.728;23.296;2024-02-21T21:28:21;16.00;;;6.63;;
6850;SDS011;3464;42.728;23.296;2024-02-21T21:31:16;16.70;;;7.27;;
6850;SDS011;3464;42.728;23.296;2024-02-21T21:34:08;18.93;;;8.50;;
6850;SDS011;3464;42.728;23.296;2024-02-21T21:36:58;19.10;;;8.03;;
6850;SDS011;3464;42.728;23.296;2024-02-21T21:42:50;19.53;;;8.27;;
6850;SDS011;3464;42.728;23.296;2024-02-21T21:45:39;19.87;;;9.37;;
6850;SDS011;3464;42.728;23.296;2024-02-21T21:48:32;24.20;;;10.73;;
6850;SDS011;3464;42.728;23.296;2024-02-21T21:51:24;22.37;;;10.17;;
6850;SDS011;3464;42.728;23.296;2024-02-21T21:54:18;20.30;;;9.00;;
6850;SDS011;3464;42.728;23.296;2024-02-21T21:57:08;20.70;;;9.90;;
6850;SDS011;3464;42.728;23.296;2024-02-21T21:59:57;17.03;;;9.53;;
6850;SDS011;3464;42.728;23.296;2024-02-21T22:02:48;18.53;;;10.60;;
6850;SDS011;3464;42.728;23.296;2024-02-21T22:05:38;12.93;;;6.07;;
6850;SDS011;3464;42.728;23.296;2024-02-21T22:08:28;11.87;;;4.77;;
6850;SDS011;3464;42.728;23.296;2024-02-21T22:11:17;12.70;;;5.30;;
6850;SDS011;3464;42.728;23.296;2024-02-21T22:14:07;12.20;;;5.10;;
6850;SDS011;3464;42.728;23.296;2024-02-21T22:16:56;12.97;;;5.70;;
6850;SDS011;3464;42.728;23.296;2024-02-21T22:19:47;16.03;;;6.60;;
6850;SDS011;3464;42.728;23.296;2024-02-21T22:22:38;14.10;;;6.07;;
6850;SDS011;3464;42.728;23.296;2024-02-21T22:25:27;15.07;;;6.23;;
6850;SDS011;3464;42.728;23.296;2024-02-21T22:28:16;14.40;;;6.53;;
6850;SDS011;3464;42.728;23.296;2024-02-21T22:31:12;13.57;;;5.63;;
6850;SDS011;3464;42.728;23.296;2024-02-21T22:34:00;15.00;;;6.13;;
6850;SDS011;3464;42.728;23.296;2024-02-21T22:36:50;13.63;;;5.93;;
6850;SDS011;3464;42.728;23.296;2024-02-21T22:39:41;13.90;;;6.30;;
6850;SDS011;3464;42.728;23.296;2024-02-21T22:42:30;15.90;;;7.33;;
6850;SDS011;3464;42.728;23.296;2024-02-21T22:51:42;14.87;;;7.20;;
6850;SDS011;3464;42.728;23.296;2024-02-21T22:54:31;16.37;;;7.67;;
6850;SDS011;3464;42.728;23.296;2024-02-21T22:57:38;19.13;;;8.60;;
6850;SDS011;3464;42.728;23.296;2024-02-21T23:00:35;17.80;;;8.50;;
6850;SDS011;3464;42.728;23.296;2024-02-21T23:30:05;20.07;;;9.73;;
6850;SDS011;3464;42.728;23.296;2024-02-21T23:36:14;20.10;;;10.30;;
6850;SDS011;3464;42.728;23.296;2024-02-21T23:39:04;20.50;;;9.70;;
6850;SDS011;3464;42.728;23.296;2024-02-21T23:41:53;19.70;;;9.93;;
6850;SDS011;3464;42.728;23.296;2024-02-21T23:44:46;19.13;;;9.70;;
6850;SDS011;3464;42.728;23.296;2024-02-21T23:47:36;18.60;;;10.00;;
6850;SDS011;3464;42.728;23.296;2024-02-21T23:50:25;18.00;;;8.90;;
6850;SDS011;3464;42.728;23.296;2024-02-21T23:53:15;20.30;;;9.40;;
6850;SDS011;3464;42.728;23.296;2024-02-21T23:56:07;18.50;;;8.50;;
6850;SDS011;3464;42.728;23.296;2024-02-21T23:58:56;16.77;;;8.83;;
